sensor_id;sensor_type;location;lat;lon;timestamp;pressure;altitude;pressure_sealevel;temperature;humidity
9335;BME280;4706;41.844;26.082;2023-02-23T00:01:55;100730.25;;;12.70;57.53
9335;BME280;4706;41.844;26.082;2023-02-23T00:04:21;100730.06;;;12.67;57.39
9335;BME280;4706;41.844;26.082;2023-02-23T00:06:47;100732.44;;;12.59;57.47
9335;BME280;4706;41.844;26.082;2023-02-23T00:09:16;100736.44;;;12.53;57.56
9335;BME280;4706;41.844;26.082;2023-02-23T00:11:54;100732.88;;;12.53;57.20
9335;BME280;4706;41.844;26.082;2023-02-23T00:14:23;100734.22;;;12.42;57.52
9335;BME280;4706;41.844;26.082;2023-02-23T00:16:52;100729.31;;;12.25;57.67
9335;BME280;4706;41.844;26.082;2023-02-23T00:19:17;100730.25;;;12.34;57.84
9335;BME280;4706;41.844;26.082;2023-02-23T00:21:43;100732.16;;;12.33;57.51
9335;BME280;4706;41.844;26.082;2023-02-23T00:24:11;100731.16;;;12.43;57.11
9335;BME280;4706;41.844;26.082;2023-02-23T00:26:39;100736.66;;;12.43;57.32
9335;BME280;4706;41.844;26.082;2023-02-23T00:29:09;100740.97;;;12.35;57.28
9335;BME280;4706;41.844;26.082;2023-02-23T00:31:37;100730.47;;;12.24;57.92
9335;BME280;4706;41.844;26.082;2023-02-23T00:34:03;100739.47;;;12.15;58.16
9335;BME280;4706;41.844;26.082;2023-02-23T00:36:31;100737.13;;;12.23;57.95
9335;BME280;4706;41.844;26.082;2023-02-23T00:38:59;100744.47;;;12.13;57.76
9335;BME280;4706;41.844;26.082;2023-02-23T00:41:26;100737.31;;;11.99;58.39
9335;BME280;4706;41.844;26.082;2023-02-23T00:43:56;100741.19;;;12.11;58.03
9335;BME280;4706;41.844;26.082;2023-02-23T00:46:24;100740.56;;;12.14;58.11
9335;BME280;4706;41.844;26.082;2023-02-23T00:48:51;100740.66;;;11.96;58.60
9335;BME280;4706;41.844;26.082;2023-02-23T00:51:19;100745.78;;;12.02;58.63
9335;BME280;4706;41.844;26.082;2023-02-23T00:53:45;100743.84;;;12.03;58.35
9335;BME280;4706;41.844;26.082;2023-02-23T00:56:13;100741.19;;;11.98;58.84
9335;BME280;4706;41.844;26.082;2023-02-23T00:58:40;100731.38;;;12.05;58.63
9335;BME280;4706;41.844;26.082;2023-02-23T01:01:11;100722.50;;;11.95;58.17
9335;BME280;4706;41.844;26.082;2023-02-23T01:03:38;100733.81;;;12.07;58.48
9335;BME280;4706;41.844;26.082;2023-02-23T01:06:07;100734.25;;;12.00;58.36
9335;BME280;4706;41.844;26.082;2023-02-23T01:08:35;100730.16;;;11.98;58.17
9335;BME280;4706;41.844;26.082;2023-02-23T01:11:09;100734.88;;;11.97;58.43
9335;BME280;4706;41.844;26.082;2023-02-23T01:13:35;100729.44;;;11.92;58.45
9335;BME280;4706;41.844;26.082;2023-02-23T01:16:06;100738.56;;;11.93;58.70
9335;BME280;4706;41.844;26.082;2023-02-23T01:18:32;100739.38;;;11.93;58.65
9335;BME280;4706;41.844;26.082;2023-02-23T01:20:59;100734.34;;;11.95;58.80
9335;BME280;4706;41.844;26.082;2023-02-23T01:23:25;100732.19;;;11.92;58.81
9335;BME280;4706;41.844;26.082;2023-02-23T01:25:50;100730.06;;;11.89;58.56
9335;BME280;4706;41.844;26.082;2023-02-23T01:28:16;100740.38;;;11.83;59.16
9335;BME280;4706;41.844;26.082;2023-02-23T01:30:41;100694.88;;;11.53;59.15
9335;BME280;4706;41.844;26.082;2023-02-23T01:33:07;100735.22;;;11.77;59.27
9335;BME280;4706;41.844;26.082;2023-02-23T01:35:33;100737.16;;;11.76;59.67
9335;BME280;4706;41.844;26.082;2023-02-23T01:37:59;100742.47;;;11.73;59.66
9335;BME280;4706;41.844;26.082;2023-02-23T01:40:26;100741.75;;;11.67;59.80
9335;BME280;4706;41.844;26.082;2023-02-23T01:42:57;100747.16;;;11.72;59.50
9335;BME280;4706;41.844;26.082;2023-02-23T01:45:35;100745.31;;;11.67;59.53
9335;BME280;4706;41.844;26.082;2023-02-23T01:48:11;100747.06;;;11.63;59.62
9335;BME280;4706;41.844;26.082;2023-02-23T01:50:54;100737.44;;;11.61;60.07
9335;BME280;4706;41.844;26.082;2023-02-23T01:53:22;100740.72;;;11.63;60.16
9335;BME280;4706;41.844;26.082;2023-02-23T01:55:49;100746.63;;;11.56;60.86
9335;BME280;4706;41.844;26.082;2023-02-23T01:58:21;100751.59;;;11.54;61.05
9335;BME280;4706;41.844;26.082;2023-02-23T02:00:53;100747.75;;;11.55;60.05
9335;BME280;4706;41.844;26.082;2023-02-23T02:05:52;100759.06;;;11.54;59.92
9335;BME280;4706;41.844;26.082;2023-02-23T02:08:19;100744.75;;;11.38;60.30
9335;BME280;4706;41.844;26.082;2023-02-23T02:10:48;100766.00;;;11.51;60.49
9335;BME280;4706;41.844;26.082;2023-02-23T02:13:22;100767.81;;;11.42;60.49
9335;BME280;4706;41.844;26.082;2023-02-23T02:19:00;100765.22;;;11.32;60.29
9335;BME280;4706;41.844;26.082;2023-02-23T02:38:20;100777.50;;;11.21;60.38
9335;BME280;4706;41.844;26.082;2023-02-23T02:41:33;100782.75;;;11.22;60.07
9335;BME280;4706;41.844;26.082;2023-02-23T02:44:08;100781.91;;;11.22;59.82
9335;BME280;4706;41.844;26.082;2023-02-23T02:46:42;100775.88;;;11.19;60.10
9335;BME280;4706;41.844;26.082;2023-02-23T02:49:30;100785.38;;;11.13;60.25
9335;BME280;4706;41.844;26.082;2023-02-23T02:52:15;100784.00;;;11.11;60.18
9335;BME280;4706;41.844;26.082;2023-02-23T02:54:52;100795.53;;;11.13;60.29
9335;BME280;4706;41.844;26.082;2023-02-23T02:57:24;100778.66;;;11.01;60.25
9335;BME280;4706;41.844;26.082;2023-02-23T02:59:50;100796.44;;;11.08;60.69
9335;BME280;4706;41.844;26.082;2023-02-23T03:02:37;100789.06;;;11.04;60.58
9335;BME280;4706;41.844;26.082;2023-02-23T03:05:47;100802.63;;;11.00;60.68
9335;BME280;4706;41.844;26.082;2023-02-23T03:08:45;100798.75;;;11.01;60.43
9335;BME280;4706;41.844;26.082;2023-02-23T03:11:39;100794.22;;;10.91;60.64
9335;BME280;4706;41.844;26.082;2023-02-23T03:15:07;100788.53;;;10.83;60.76
9335;BME280;4706;41.844;26.082;2023-02-23T03:18:50;100799.63;;;10.97;60.83
9335;BME280;4706;41.844;26.082;2023-02-23T03:21:14;100810.97;;;10.95;60.90
9335;BME280;4706;41.844;26.082;2023-02-23T03:30:20;100805.72;;;10.93;61.03
9335;BME280;4706;41.844;26.082;2023-02-23T03:33:16;100807.44;;;10.89;61.04
9335;BME280;4706;41.844;26.082;2023-02-23T03:36:07;100799.72;;;10.91;60.86
9335;BME280;4706;41.844;26.082;2023-02-23T03:39:02;100809.06;;;10.90;61.25
9335;BME280;4706;41.844;26.082;2023-02-23T03:41:51;100811.09;;;10.85;60.91
9335;BME280;4706;41.844;26.082;2023-02-23T03:44:40;100819.13;;;11.00;61.18
9335;BME280;4706;41.844;26.082;2023-02-23T03:47:28;100820.25;;;10.99;60.85
9335;BME280;4706;41.844;26.082;2023-02-23T03:50:27;100823.00;;;10.99;60.80
9335;BME280;4706;41.844;26.082;2023-02-23T03:53:16;100828.28;;;10.96;60.82
9335;BME280;4706;41.844;26.082;2023-02-23T03:56:02;100825.81;;;10.94;61.26
9335;BME280;4706;41.844;26.082;2023-02-23T03:58:50;100825.66;;;10.85;61.26
9335;BME280;4706;41.844;26.082;2023-02-23T04:01:37;100822.31;;;10.88;61.28
9335;BME280;4706;41.844;26.082;2023-02-23T04:04:23;100833.78;;;10.96;61.34
9335;BME280;4706;41.844;26.082;2023-02-23T04:07:09;100827.69;;;10.99;61.59
9335;BME280;4706;41.844;26.082;2023-02-23T04:09:53;100829.69;;;10.93;61.71
9335;BME280;4706;41.844;26.082;2023-02-23T04:13:02;100821.56;;;10.83;62.55
9335;BME280;4706;41.844;26.082;2023-02-23T04:15:56;100812.34;;;10.74;62.80
9335;BME280;4706;41.844;26.082;2023-02-23T04:18:26;100826.56;;;10.81;63.24
9335;BME280;4706;41.844;26.082;2023-02-23T04:20:54;100828.28;;;10.77;63.98
9335;BME280;4706;41.844;26.082;2023-02-23T04:23:20;100832.97;;;10.76;63.88
9335;BME280;4706;41.844;26.082;2023-02-23T04:25:48;100826.19;;;10.68;64.16
9335;BME280;4706;41.844;26.082;2023-02-23T04:28:13;100830.56;;;10.69;64.04
9335;BME280;4706;41.844;26.082;2023-02-23T04:30:40;100832.53;;;10.64;64.22
9335;BME280;4706;41.844;26.082;2023-02-23T04:33:06;100837.22;;;10.63;64.56
9335;BME280;4706;41.844;26.082;2023-02-23T04:35:31;100838.88;;;10.64;64.75
9335;BME280;4706;41.844;26.082;2023-02-23T04:37:57;100843.94;;;10.57;65.20
9335;BME280;4706;41.844;26.082;2023-02-23T04:40:23;100841.19;;;10.57;65.25
9335;BME280;4706;41.844;26.082;2023-02-23T04:42:49;100833.19;;;10.56;65.79
9335;BME280;4706;41.844;26.082;2023-02-23T04:45:14;100838.44;;;10.57;65.78
9335;BME280;4706;41.844;26.082;2023-02-23T04:47:40;100843.38;;;10.55;65.98
9335;BME280;4706;41.844;26.082;2023-02-23T04:50:06;100824.50;;;10.49;66.07
9335;BME280;4706;41.844;26.082;2023-02-23T04:52:32;100831.03;;;10.53;66.27
9335;BME280;4706;41.844;26.082;2023-02-23T04:55:00;100842.72;;;10.63;66.28
9335;BME280;4706;41.844;26.082;2023-02-23T04:57:25;100855.09;;;10.66;66.22
9335;BME280;4706;41.844;26.082;2023-02-23T04:59:51;100843.31;;;10.60;66.34
9335;BME280;4706;41.844;26.082;2023-02-23T05:02:17;100855.31;;;10.69;66.28
9335;BME280;4706;41.844;26.082;2023-02-23T05:04:42;100847.31;;;10.73;66.50
9335;BME280;4706;41.844;26.082;2023-02-23T05:07:08;100850.63;;;10.70;66.38
9335;BME280;4706;41.844;26.082;2023-02-23T05:09:34;100853.16;;;10.66;66.39
9335;BME280;4706;41.844;26.082;2023-02-23T05:11:59;100852.03;;;10.67;66.46
9335;BME280;4706;41.844;26.082;2023-02-23T05:14:26;100859.19;;;10.68;66.45
9335;BME280;4706;41.844;26.082;2023-02-23T05:16:51;100858.16;;;10.64;66.59
9335;BME280;4706;41.844;26.082;2023-02-23T05:19:17;100858.06;;;10.69;66.44
9335;BME280;4706;41.844;26.082;2023-02-23T05:21:42;100861.09;;;10.68;66.81
9335;BME280;4706;41.844;26.082;2023-02-23T05:24:09;100867.44;;;10.68;66.50
9335;BME280;4706;41.844;26.082;2023-02-23T05:26:34;100868.78;;;10.71;66.31
9335;BME280;4706;41.844;26.082;2023-02-23T05:29:00;100865.75;;;10.73;66.61
9335;BME280;4706;41.844;26.082;2023-02-23T05:31:26;100875.69;;;10.68;66.56
9335;BME280;4706;41.844;26.082;2023-02-23T05:33:52;100886.97;;;10.67;66.30
9335;BME280;4706;41.844;26.082;2023-02-23T05:36:20;100881.19;;;10.68;67.21
9335;BME280;4706;41.844;26.082;2023-02-23T05:38:46;100888.59;;;10.68;66.41
9335;BME280;4706;41.844;26.082;2023-02-23T05:41:18;100883.19;;;10.39;67.62
9335;BME280;4706;41.844;26.082;2023-02-23T05:43:45;100905.22;;;10.34;68.87
9335;BME280;4706;41.844;26.082;2023-02-23T05:46:18;100901.66;;;10.33;68.70
9335;BME280;4706;41.844;26.082;2023-02-23T05:48:44;100908.75;;;10.39;68.22
9335;BME280;4706;41.844;26.082;2023-02-23T05:51:12;100908.69;;;10.44;67.88
9335;BME280;4706;41.844;26.082;2023-02-23T05:53:38;100903.84;;;10.36;67.57
9335;BME280;4706;41.844;26.082;2023-02-23T05:56:05;100912.22;;;10.50;67.91
9335;BME280;4706;41.844;26.082;2023-02-23T05:58:32;100921.53;;;10.54;67.64
9335;BME280;4706;41.844;26.082;2023-02-23T06:00:58;100922.66;;;10.53;67.65
9335;BME280;4706;41.844;26.082;2023-02-23T06:03:24;100924.44;;;10.63;67.13
9335;BME280;4706;41.844;26.082;2023-02-23T06:05:55;100927.44;;;10.66;67.43
9335;BME280;4706;41.844;26.082;2023-02-23T06:08:22;100930.19;;;10.66;67.08
9335;BME280;4706;41.844;26.082;2023-02-23T06:10:50;100935.44;;;10.63;68.60
9335;BME280;4706;41.844;26.082;2023-02-23T06:13:16;100931.81;;;10.67;68.28
9335;BME280;4706;41.844;26.082;2023-02-23T06:15:42;100938.09;;;10.73;68.61
9335;BME280;4706;41.844;26.082;2023-02-23T06:18:08;100947.47;;;10.72;68.63
9335;BME280;4706;41.844;26.082;2023-02-23T06:20:34;100946.19;;;10.64;67.82
9335;BME280;4706;41.844;26.082;2023-02-23T06:22:59;100950.66;;;10.55;69.45
9335;BME280;4706;41.844;26.082;2023-02-23T06:25:25;100950.16;;;10.53;69.48
9335;BME280;4706;41.844;26.082;2023-02-23T06:27:51;100952.28;;;10.56;69.67
9335;BME280;4706;41.844;26.082;2023-02-23T06:30:16;100946.56;;;10.53;69.32
9335;BME280;4706;41.844;26.082;2023-02-23T06:32:42;100960.38;;;10.72;68.74
9335;BME280;4706;41.844;26.082;2023-02-23T06:35:08;100959.78;;;10.75;68.73
9335;BME280;4706;41.844;26.082;2023-02-23T06:37:34;100952.59;;;10.79;68.72
9335;BME280;4706;41.844;26.082;2023-02-23T06:40:01;100957.97;;;10.89;68.51
9335;BME280;4706;41.844;26.082;2023-02-23T06:42:27;100969.53;;;10.91;68.34
9335;BME280;4706;41.844;26.082;2023-02-23T06:44:52;100964.19;;;11.00;67.58
9335;BME280;4706;41.844;26.082;2023-02-23T06:47:18;100969.97;;;10.98;67.34
9335;BME280;4706;41.844;26.082;2023-02-23T06:49:43;100965.31;;;10.99;67.45
9335;BME280;4706;41.844;26.082;2023-02-23T06:52:09;100966.94;;;11.00;68.11
9335;BME280;4706;41.844;26.082;2023-02-23T06:54:38;100974.03;;;11.06;68.37
9335;BME280;4706;41.844;26.082;2023-02-23T06:57:05;100973.06;;;11.15;68.11
9335;BME280;4706;41.844;26.082;2023-02-23T06:59:30;100973.53;;;11.23;67.70
9335;BME280;4706;41.844;26.082;2023-02-23T07:01:56;100979.50;;;11.30;67.60
9335;BME280;4706;41.844;26.082;2023-02-23T07:04:21;100959.91;;;11.31;67.19
9335;BME280;4706;41.844;26.082;2023-02-23T07:06:47;100979.41;;;11.35;67.81
9335;BME280;4706;41.844;26.082;2023-02-23T07:09:13;100977.34;;;11.46;67.49
9335;BME280;4706;41.844;26.082;2023-02-23T07:11:40;100972.66;;;11.46;67.87
9335;BME280;4706;41.844;26.082;2023-02-23T07:14:08;100979.44;;;11.54;67.61
9335;BME280;4706;41.844;26.082;2023-02-23T07:16:34;100980.66;;;11.66;67.06
9335;BME280;4706;41.844;26.082;2023-02-23T07:19:01;100986.06;;;11.72;67.29
9335;BME280;4706;41.844;26.082;2023-02-23T07:21:28;100974.69;;;11.78;66.86
9335;BME280;4706;41.844;26.082;2023-02-23T07:23:56;100976.63;;;11.78;66.73
9335;BME280;4706;41.844;26.082;2023-02-23T07:26:22;100974.16;;;11.76;67.20
9335;BME280;4706;41.844;26.082;2023-02-23T07:28:48;100972.75;;;11.79;66.91
9335;BME280;4706;41.844;26.082;2023-02-23T07:31:13;100988.53;;;11.92;66.76
9335;BME280;4706;41.844;26.082;2023-02-23T07:33:39;100993.69;;;11.99;66.36
9335;BME280;4706;41.844;26.082;2023-02-23T07:36:04;100990.63;;;12.00;66.60
9335;BME280;4706;41.844;26.082;2023-02-23T07:38:30;100998.13;;;12.13;66.15
9335;BME280;4706;41.844;26.082;2023-02-23T07:40:56;100989.97;;;12.22;65.95
9335;BME280;4706;41.844;26.082;2023-02-23T07:43:21;100998.09;;;12.32;65.71
9335;BME280;4706;41.844;26.082;2023-02-23T07:45:49;100992.50;;;12.37;65.40
9335;BME280;4706;41.844;26.082;2023-02-23T07:48:17;100978.72;;;12.37;64.97
9335;BME280;4706;41.844;26.082;2023-02-23T07:50:43;100980.25;;;12.44;65.02
9335;BME280;4706;41.844;26.082;2023-02-23T07:53:09;100988.34;;;12.54;65.17
9335;BME280;4706;41.844;26.082;2023-02-23T07:55:36;100993.97;;;12.62;64.98
9335;BME280;4706;41.844;26.082;2023-02-23T07:58:05;100992.06;;;12.77;64.68
9335;BME280;4706;41.844;26.082;2023-02-23T08:00:32;101000.97;;;12.87;63.86
9335;BME280;4706;41.844;26.082;2023-02-23T08:02:58;100990.53;;;12.98;63.93
9335;BME280;4706;41.844;26.082;2023-02-23T08:05:26;100987.97;;;13.02;63.18
9335;BME280;4706;41.844;26.082;2023-02-23T08:07:53;101000.16;;;13.15;63.01
9335;BME280;4706;41.844;26.082;2023-02-23T08:10:20;101003.22;;;13.27;62.72
9335;BME280;4706;41.844;26.082;2023-02-23T08:12:46;101006.31;;;13.39;62.17
9335;BME280;4706;41.844;26.082;2023-02-23T08:15:11;101005.84;;;13.59;61.38
9335;BME280;4706;41.844;26.082;2023-02-23T08:17:38;100991.00;;;13.69;61.19
9335;BME280;4706;41.844;26.082;2023-02-23T08:20:04;100996.47;;;13.83;61.20
9335;BME280;4706;41.844;26.082;2023-02-23T08:22:30;100994.69;;;13.87;60.53
9335;BME280;4706;41.844;26.082;2023-02-23T08:24:56;100999.19;;;13.97;60.35
9335;BME280;4706;41.844;26.082;2023-02-23T08:27:21;101008.16;;;14.25;59.59
9335;BME280;4706;41.844;26.082;2023-02-23T08:29:47;101004.00;;;14.36;59.51
9335;BME280;4706;41.844;26.082;2023-02-23T08:32:12;101003.97;;;14.50;58.71
9335;BME280;4706;41.844;26.082;2023-02-23T08:34:42;101001.75;;;14.61;58.65
9335;BME280;4706;41.844;26.082;2023-02-23T08:37:08;100987.88;;;14.83;57.67
9335;BME280;4706;41.844;26.082;2023-02-23T08:39:34;101004.78;;;15.13;56.68
9335;BME280;4706;41.844;26.082;2023-02-23T08:42:00;101013.72;;;15.18;56.09
9335;BME280;4706;41.844;26.082;2023-02-23T08:44:26;101003.34;;;15.24;55.92
9335;BME280;4706;41.844;26.082;2023-02-23T08:46:51;101008.38;;;15.30;56.22
9335;BME280;4706;41.844;26.082;2023-02-23T08:49:18;101000.41;;;15.29;55.03
9335;BME280;4706;41.844;26.082;2023-02-23T08:51:43;101003.53;;;15.36;56.04
9335;BME280;4706;41.844;26.082;2023-02-23T08:54:11;100999.66;;;15.54;55.44
9335;BME280;4706;41.844;26.082;2023-02-23T08:56:42;100998.06;;;15.79;54.81
9335;BME280;4706;41.844;26.082;2023-02-23T08:59:10;101006.38;;;16.06;52.83
9335;BME280;4706;41.844;26.082;2023-02-23T09:01:36;100998.88;;;16.15;53.23
9335;BME280;4706;41.844;26.082;2023-02-23T09:04:03;101006.41;;;16.14;53.37
9335;BME280;4706;41.844;26.082;2023-02-23T09:06:30;101001.00;;;16.26;53.47
9335;BME280;4706;41.844;26.082;2023-02-23T09:08:55;100999.66;;;16.41;53.15
9335;BME280;4706;41.844;26.082;2023-02-23T09:11:22;101014.28;;;16.68;52.04
9335;BME280;4706;41.844;26.082;2023-02-23T09:13:48;101015.94;;;16.78;52.11
9335;BME280;4706;41.844;26.082;2023-02-23T09:16:14;101019.50;;;16.87;51.24
9335;BME280;4706;41.844;26.082;2023-02-23T09:18:40;101016.91;;;16.82;51.64
9335;BME280;4706;41.844;26.082;2023-02-23T09:21:10;101008.03;;;16.88;51.55
9335;BME280;4706;41.844;26.082;2023-02-23T09:23:38;101012.34;;;17.15;50.47
9335;BME280;4706;41.844;26.082;2023-02-23T09:26:05;101007.91;;;17.23;50.51
9335;BME280;4706;41.844;26.082;2023-02-23T09:28:32;101010.81;;;17.27;50.35
9335;BME280;4706;41.844;26.082;2023-02-23T09:31:03;101025.34;;;16.94;50.55
9335;BME280;4706;41.844;26.082;2023-02-23T09:33:29;101022.47;;;16.82;51.14
9335;BME280;4706;41.844;26.082;2023-02-23T09:35:55;101026.06;;;16.65;51.49
9335;BME280;4706;41.844;26.082;2023-02-23T09:38:20;101021.22;;;16.44;51.87
9335;BME280;4706;41.844;26.082;2023-02-23T09:40:48;101024.16;;;16.31;52.64
9335;BME280;4706;41.844;26.082;2023-02-23T09:43:47;101025.31;;;16.12;53.12
9335;BME280;4706;41.844;26.082;2023-02-23T09:46:37;101023.19;;;16.00;53.63
9335;BME280;4706;41.844;26.082;2023-02-23T09:49:13;101019.78;;;15.95;53.76
9335;BME280;4706;41.844;26.082;2023-02-23T09:51:44;101024.19;;;15.87;53.89
9335;BME280;4706;41.844;26.082;2023-02-23T09:54:13;101019.59;;;15.74;54.28
9335;BME280;4706;41.844;26.082;2023-02-23T09:56:46;101012.91;;;15.66;55.00
9335;BME280;4706;41.844;26.082;2023-02-23T09:59:14;101012.19;;;15.61;55.15
9335;BME280;4706;41.844;26.082;2023-02-23T10:07:01;101005.59;;;15.30;56.45
9335;BME280;4706;41.844;26.082;2023-02-23T10:12:39;101003.41;;;15.01;57.99
9335;BME280;4706;41.844;26.082;2023-02-23T10:15:26;100999.84;;;15.01;58.27
9335;BME280;4706;41.844;26.082;2023-02-23T10:21:05;100996.13;;;15.14;58.21
9335;BME280;4706;41.844;26.082;2023-02-23T10:23:44;100998.72;;;15.19;58.11
9335;BME280;4706;41.844;26.082;2023-02-23T10:26:21;101000.88;;;15.22;58.45
9335;BME280;4706;41.844;26.082;2023-02-23T10:28:48;100992.91;;;15.29;58.22
9335;BME280;4706;41.844;26.082;2023-02-23T10:31:35;100997.00;;;15.32;58.10
9335;BME280;4706;41.844;26.082;2023-02-23T10:34:12;100988.03;;;15.35;58.27
9335;BME280;4706;41.844;26.082;2023-02-23T10:36:59;100984.28;;;15.48;58.20
9335;BME280;4706;41.844;26.082;2023-02-23T10:39:27;100985.63;;;15.60;57.77
9335;BME280;4706;41.844;26.082;2023-02-23T10:41:56;100974.53;;;15.51;57.83
9335;BME280;4706;41.844;26.082;2023-02-23T10:44:24;100978.13;;;15.60;57.66
9335;BME280;4706;41.844;26.082;2023-02-23T10:47:10;100983.19;;;15.58;58.10
9335;BME280;4706;41.844;26.082;2023-02-23T10:52:16;100979.09;;;15.64;58.02
9335;BME280;4706;41.844;26.082;2023-02-23T10:54:47;100975.56;;;15.72;57.79
9335;BME280;4706;41.844;26.082;2023-02-23T10:57:25;100976.69;;;15.71;57.99
9335;BME280;4706;41.844;26.082;2023-02-23T11:00:25;100963.78;;;15.75;57.95
9335;BME280;4706;41.844;26.082;2023-02-23T11:02:55;100952.56;;;15.81;57.80
9335;BME280;4706;41.844;26.082;2023-02-23T11:05:43;100957.47;;;15.84;58.08
9335;BME280;4706;41.844;26.082;2023-02-23T11:08:17;100961.19;;;15.88;57.97
9335;BME280;4706;41.844;26.082;2023-02-23T11:11:06;100956.78;;;15.87;57.78
9335;BME280;4706;41.844;26.082;2023-02-23T11:13:46;100960.03;;;15.97;57.34
9335;BME280;4706;41.844;26.082;2023-02-23T11:16:24;100960.84;;;15.98;57.60
9335;BME280;4706;41.844;26.082;2023-02-23T11:19:01;100952.38;;;15.94;57.79
9335;BME280;4706;41.844;26.082;2023-02-23T11:21:37;100954.84;;;15.96;57.70
9335;BME280;4706;41.844;26.082;2023-02-23T11:24:49;100952.69;;;16.01;58.09
9335;BME280;4706;41.844;26.082;2023-02-23T11:27:19;100962.16;;;16.09;57.77
9335;BME280;4706;41.844;26.082;2023-02-23T11:29:46;100947.97;;;16.11;57.68
9335;BME280;4706;41.844;26.082;2023-02-23T11:32:15;100943.19;;;16.20;57.28
9335;BME280;4706;41.844;26.082;2023-02-23T11:34:44;100929.00;;;16.21;57.31
9335;BME280;4706;41.844;26.082;2023-02-23T11:39:59;100927.84;;;16.69;56.41
9335;BME280;4706;41.844;26.082;2023-02-23T11:42:32;100934.16;;;16.87;56.06
9335;BME280;4706;41.844;26.082;2023-02-23T11:45:17;100926.56;;;17.05;55.64
9335;BME280;4706;41.844;26.082;2023-02-23T11:47:50;100933.31;;;17.25;55.11
9335;BME280;4706;41.844;26.082;2023-02-23T11:50:43;100929.25;;;17.43;54.51
9335;BME280;4706;41.844;26.082;2023-02-23T11:55:38;100921.94;;;17.81;53.46
9335;BME280;4706;41.844;26.082;2023-02-23T11:58:21;100923.59;;;17.94;52.68
9335;BME280;4706;41.844;26.082;2023-02-23T12:00:58;100922.13;;;17.96;52.70
9335;BME280;4706;41.844;26.082;2023-02-23T12:03:27;100928.06;;;18.07;52.64
9335;BME280;4706;41.844;26.082;2023-02-23T12:05:55;100921.53;;;18.24;52.08
9335;BME280;4706;41.844;26.082;2023-02-23T12:08:46;100921.19;;;18.38;52.07
9335;BME280;4706;41.844;26.082;2023-02-23T12:11:20;100922.25;;;18.45;51.57
9335;BME280;4706;41.844;26.082;2023-02-23T12:13:59;100922.84;;;18.63;51.31
9335;BME280;4706;41.844;26.082;2023-02-23T12:16:37;100930.22;;;18.92;50.42
9335;BME280;4706;41.844;26.082;2023-02-23T12:19:29;100921.97;;;18.84;49.68
9335;BME280;4706;41.844;26.082;2023-02-23T12:22:01;100918.25;;;18.92;50.45
9335;BME280;4706;41.844;26.082;2023-02-23T12:24:36;100917.19;;;19.09;49.79
9335;BME280;4706;41.844;26.082;2023-02-23T12:27:29;100924.75;;;18.96;49.67
9335;BME280;4706;41.844;26.082;2023-02-23T12:32:28;100913.09;;;18.45;50.32
9335;BME280;4706;41.844;26.082;2023-02-23T12:35:11;100923.97;;;17.92;51.83
9335;BME280;4706;41.844;26.082;2023-02-23T12:37:45;100924.84;;;17.63;52.98
9335;BME280;4706;41.844;26.082;2023-02-23T12:40:22;100921.91;;;17.60;53.44
9335;BME280;4706;41.844;26.082;2023-02-23T12:43:10;100924.03;;;17.84;53.12
9335;BME280;4706;41.844;26.082;2023-02-23T12:45:47;100918.75;;;17.91;52.87
9335;BME280;4706;41.844;26.082;2023-02-23T12:48:30;100910.69;;;17.77;52.61
9335;BME280;4706;41.844;26.082;2023-02-23T12:50:59;100921.94;;;17.81;52.90
9335;BME280;4706;41.844;26.082;2023-02-23T12:53:41;100922.44;;;17.83;52.63
9335;BME280;4706;41.844;26.082;2023-02-23T13:01:49;100929.72;;;16.95;55.06
9335;BME280;4706;41.844;26.082;2023-02-23T13:12:21;100932.09;;;16.75;56.04
9335;BME280;4706;41.844;26.082;2023-02-23T13:17:58;100926.78;;;16.91;56.18
9335;BME280;4706;41.844;26.082;2023-02-23T13:26:03;100922.00;;;17.51;53.93
9335;BME280;4706;41.844;26.082;2023-02-23T13:31:28;100924.25;;;17.79;53.36
9335;BME280;4706;41.844;26.082;2023-02-23T13:33:56;100919.66;;;17.83;52.87
9335;BME280;4706;41.844;26.082;2023-02-23T13:36:25;100919.22;;;17.72;53.22
9335;BME280;4706;41.844;26.082;2023-02-23T13:41:30;100925.94;;;17.50;53.75
9335;BME280;4706;41.844;26.082;2023-02-23T13:44:09;100921.38;;;17.24;54.25
9335;BME280;4706;41.844;26.082;2023-02-23T13:46:44;100929.66;;;17.04;54.97
9335;BME280;4706;41.844;26.082;2023-02-23T13:49:35;100926.78;;;16.91;55.38
9335;BME280;4706;41.844;26.082;2023-02-23T13:52:37;100935.19;;;16.83;55.40
9335;BME280;4706;41.844;26.082;2023-02-23T13:57:54;100930.00;;;16.64;55.82
9335;BME280;4706;41.844;26.082;2023-02-23T14:00:22;100939.53;;;16.45;56.74
9335;BME280;4706;41.844;26.082;2023-02-23T14:02:49;100934.66;;;16.42;57.03
9335;BME280;4706;41.844;26.082;2023-02-23T14:05:21;100931.41;;;16.40;56.64
9335;BME280;4706;41.844;26.082;2023-02-23T14:07:58;100935.97;;;16.45;56.77
9335;BME280;4706;41.844;26.082;2023-02-23T14:10:38;100937.91;;;16.44;56.83
9335;BME280;4706;41.844;26.082;2023-02-23T14:18:28;100926.72;;;16.15;57.89
9335;BME280;4706;41.844;26.082;2023-02-23T14:23:32;100932.16;;;16.02;58.29
9335;BME280;4706;41.844;26.082;2023-02-23T14:34:42;100934.91;;;15.94;59.34
9335;BME280;4706;41.844;26.082;2023-02-23T14:39:41;100932.47;;;15.75;59.56
9335;BME280;4706;41.844;26.082;2023-02-23T14:42:07;100927.09;;;15.78;59.30
9335;BME280;4706;41.844;26.082;2023-02-23T14:44:36;100931.31;;;16.02;58.53
9335;BME280;4706;41.844;26.082;2023-02-23T14:47:14;100924.94;;;16.01;58.52
9335;BME280;4706;41.844;26.082;2023-02-23T14:49:59;100926.91;;;16.01;58.36
9335;BME280;4706;41.844;26.082;2023-02-23T14:52:31;100934.09;;;15.93;58.86
9335;BME280;4706;41.844;26.082;2023-02-23T14:57:36;100929.06;;;15.78;59.81
9335;BME280;4706;41.844;26.082;2023-02-23T15:00:14;100935.91;;;15.81;59.84
9335;BME280;4706;41.844;26.082;2023-02-23T15:05:35;100930.16;;;15.60;60.86
9335;BME280;4706;41.844;26.082;2023-02-23T15:08:05;100942.88;;;15.61;61.07
9335;BME280;4706;41.844;26.082;2023-02-23T15:10:37;100933.09;;;15.54;61.42
9335;BME280;4706;41.844;26.082;2023-02-23T15:13:10;100935.22;;;15.49;61.32